createdAt,value
2022-09-14T00:01:21.296Z,2.05
2022-09-14T00:06:21.068Z,1.95
2022-09-14T00:11:27.712Z,1.95
2022-09-14T00:16:37.918Z,1.85
2022-09-14T00:21:43.067Z,2.38
2022-09-14T00:26:48.612Z,2.05
2022-09-14T00:31:56.286Z,2.38
2022-09-14T00:37:01.266Z,2.10
2022-09-14T00:42:07.898Z,2.13
2022-09-14T00:47:15.841Z,2.08
2022-09-14T00:52:22.840Z,3.30
2022-09-14T00:57:31.436Z,3.20
2022-09-14T01:02:39.753Z,2.10
2022-09-14T01:08:04.849Z,2.80
2022-09-14T01:13:18.101Z,1.70
2022-09-14T01:18:29.525Z,2.05
2022-09-14T01:23:40.724Z,2.08
2022-09-14T01:28:53.010Z,2.33
2022-09-14T01:34:03.343Z,1.98
2022-09-14T01:39:09.629Z,2.13
2022-09-14T01:44:21.358Z,2.17
2022-09-14T01:49:29.824Z,2.58
2022-09-14T01:54:39.093Z,2.55
2022-09-14T01:59:48.432Z,2.40
2022-09-14T02:04:56.525Z,2.67
2022-09-14T02:10:01.477Z,2.97
2022-09-14T02:15:11.644Z,3.13
2022-09-14T02:20:19.002Z,2.50
2022-09-14T02:25:24.172Z,3.05
2022-09-14T02:30:34.452Z,3.30
2022-09-14T02:35:43.018Z,2.95
2022-09-14T02:40:54.286Z,3.30
2022-09-14T02:46:07.407Z,3.97
2022-09-14T02:51:17.736Z,3.85
2022-09-14T02:56:23.054Z,5.05
2022-09-14T03:01:31.029Z,6.68
2022-09-14T03:06:36.256Z,4.55
2022-09-14T03:11:41.170Z,4.10
2022-09-14T03:16:48.686Z,3.67
2022-09-14T03:21:53.650Z,3.55
2022-09-14T03:26:58.652Z,4.28
2022-09-14T03:32:06.231Z,3.58
2022-09-14T03:37:11.272Z,3.53
2022-09-14T03:42:16.185Z,3.75
2022-09-14T03:47:23.706Z,4.43
2022-09-14T03:57:33.363Z,5.05
2022-09-14T04:02:41.229Z,4.82
2022-09-14T04:07:46.239Z,4.43
2022-09-14T04:12:51.167Z,4.18
2022-09-14T04:17:58.791Z,4.05
2022-09-14T04:23:03.799Z,4.00
2022-09-14T04:28:20.132Z,3.95
2022-09-14T04:33:28.944Z,3.72
2022-09-14T04:38:34.555Z,5.22
2022-09-14T04:43:39.623Z,4.43
2022-09-14T04:48:47.332Z,4.53
2022-09-14T04:53:54.582Z,4.97
2022-09-14T04:59:01.021Z,4.97
2022-09-14T05:04:09.886Z,4.32
2022-09-14T05:09:16.453Z,4.72
2022-09-14T05:14:24.675Z,3.90
2022-09-14T05:19:32.696Z,5.13
2022-09-14T05:24:37.771Z,4.03
2022-09-14T05:29:42.753Z,4.63
2022-09-14T05:34:53.578Z,4.05
2022-09-14T05:39:58.641Z,3.72
2022-09-14T05:45:03.892Z,3.63
2022-09-14T05:50:12.592Z,4.32
2022-09-14T05:55:18.018Z,4.35
2022-09-14T06:00:23.207Z,3.25
2022-09-14T06:05:31.733Z,3.92
2022-09-14T06:10:37.013Z,3.28
2022-09-14T06:15:42.099Z,4.07
2022-09-14T06:20:55.905Z,4.07
2022-09-14T06:26:08.110Z,3.53
2022-09-14T06:31:15.344Z,3.00
2022-09-14T06:36:24.849Z,3.08
2022-09-14T06:41:34.573Z,3.50
2022-09-14T06:46:41.364Z,1.90
2022-09-14T06:51:51.723Z,2.60
2022-09-14T06:56:56.756Z,3.92
2022-09-14T07:02:02.119Z,2.17
2022-09-14T07:07:09.703Z,2.05
2022-09-14T07:12:14.872Z,2.08
2022-09-14T07:17:20.169Z,2.03
2022-09-14T07:22:29.159Z,1.55
2022-09-14T07:27:34.174Z,1.63
2022-09-14T07:32:39.161Z,1.63
2022-09-14T07:37:46.763Z,2.88
2022-09-14T07:42:57.462Z,1.92
2022-09-14T07:48:02.847Z,1.73
2022-09-14T07:53:10.463Z,1.88
2022-09-14T07:58:15.500Z,1.63
2022-09-14T08:03:20.477Z,1.48
2022-09-14T08:08:28.159Z,1.88
2022-09-14T08:13:33.270Z,1.42
2022-09-14T08:18:38.810Z,1.88
2022-09-14T08:23:46.996Z,1.75
2022-09-14T08:28:53.308Z,1.40
2022-09-14T08:34:00.473Z,1.45
2022-09-14T08:39:09.711Z,1.52
2022-09-14T08:44:20.087Z,1.65
2022-09-14T08:49:32.022Z,1.33
2022-09-14T08:54:40.205Z,1.58
2022-09-14T08:59:51.437Z,1.52
2022-09-14T09:04:58.957Z,1.45
2022-09-14T09:10:08.840Z,1.40
2022-09-14T09:15:21.141Z,1.60
2022-09-14T09:20:29.608Z,1.52
2022-09-14T09:25:49.095Z,1.30
2022-09-14T09:30:54.624Z,1.33
2022-09-14T09:36:00.117Z,1.30
2022-09-14T09:41:10.705Z,1.10
2022-09-14T09:46:15.819Z,0.80
2022-09-14T09:51:30.566Z,1.20
2022-09-14T09:56:41.256Z,1.45
2022-09-14T10:01:46.694Z,1.42
2022-09-14T10:06:53.428Z,1.00
2022-09-14T10:12:05.181Z,1.75
2022-09-14T10:17:21.478Z,2.35
2022-09-14T10:22:56.116Z,1.88
2022-09-14T10:56:13.526Z,1.13
2022-09-14T11:01:37.727Z,1.83
2022-09-14T12:03:29.301Z,0.80
2022-09-14T12:38:01.602Z,0.82
2022-09-14T12:43:54.110Z,0.80
2022-09-14T12:49:04.300Z,0.60
2022-09-14T12:54:23.627Z,0.63
2022-09-14T12:59:34.458Z,0.82
2022-09-14T13:04:45.870Z,0.80
2022-09-14T13:09:52.556Z,0.75
2022-09-14T13:15:01.777Z,0.73
2022-09-14T13:20:20.436Z,0.73
2022-09-14T13:25:32.861Z,0.85
2022-09-14T13:30:38.784Z,1.40
2022-09-14T13:35:49.856Z,0.73
2022-09-14T13:40:57.432Z,1.02
2022-09-14T13:46:02.622Z,0.80
2022-09-14T13:51:10.670Z,1.00
2022-09-14T13:56:34.089Z,1.02
2022-09-14T14:01:42.177Z,0.80
2022-09-14T14:07:02.183Z,0.77
2022-09-14T14:12:07.568Z,1.10
2022-09-14T14:17:40.781Z,1.35
2022-09-14T14:22:58.161Z,2.28
2022-09-14T14:28:04.776Z,1.05
2022-09-14T14:33:14.604Z,1.13
2022-09-14T14:38:23.536Z,1.33
2022-09-14T14:43:29.632Z,0.77
2022-09-14T14:58:50.020Z,1.20
2022-09-14T15:03:55.259Z,2.40
2022-09-14T15:09:06.384Z,2.08
2022-09-14T15:14:14.738Z,1.50
2022-09-14T15:19:20.184Z,2.30
2022-09-14T15:24:28.136Z,1.40
2022-09-14T15:29:33.248Z,1.80
2022-09-14T15:34:38.388Z,2.40
2022-09-14T15:39:50.011Z,1.48
2022-09-14T15:44:55.296Z,1.02
2022-09-14T15:50:00.424Z,1.13
2022-09-14T15:55:10.345Z,1.90
2022-09-14T16:00:16.704Z,2.10
2022-09-14T16:05:21.618Z,1.77
2022-09-14T16:10:29.560Z,1.65
2022-09-14T16:15:34.494Z,2.58
2022-09-14T16:20:39.740Z,1.42
2022-09-14T16:25:47.216Z,1.50
2022-09-14T16:30:52.183Z,1.67
2022-09-14T16:36:05.638Z,2.13
2022-09-14T16:41:14.084Z,1.63
2022-09-14T16:46:20.313Z,2.13
2022-09-14T16:51:26.795Z,2.05
2022-09-14T16:56:35.993Z,1.92
2022-09-14T17:01:42.274Z,2.08
2022-09-14T17:06:48.213Z,1.58
2022-09-14T17:11:56.960Z,2.15
2022-09-14T17:17:02.356Z,1.67
2022-09-14T17:22:07.303Z,1.65
2022-09-14T17:27:14.924Z,1.70
2022-09-14T17:32:19.915Z,1.75
2022-09-14T17:37:24.989Z,1.58
2022-09-14T17:42:32.620Z,1.73
2022-09-14T17:47:39.051Z,1.90
2022-09-14T17:57:51.659Z,1.90
2022-09-14T18:02:56.824Z,1.70
2022-09-14T18:08:01.888Z,2.40
2022-09-14T18:13:09.555Z,1.30
2022-09-14T18:18:14.536Z,0.90
2022-09-14T18:23:20.046Z,1.20
2022-09-14T18:28:27.927Z,1.30
2022-09-14T18:33:33.164Z,1.58
2022-09-14T18:38:38.217Z,1.73
2022-09-14T18:43:49.902Z,1.48
2022-09-14T18:48:55.501Z,1.00
2022-09-14T18:54:01.306Z,1.25
2022-09-14T18:59:14.697Z,1.65
2022-09-14T19:04:19.760Z,1.73
2022-09-14T19:09:33.808Z,1.05
2022-09-14T19:14:41.540Z,1.65
2022-09-14T19:19:46.669Z,1.80
2022-09-14T19:24:51.924Z,1.38
2022-09-14T19:30:01.302Z,1.55
2022-09-14T19:35:06.567Z,2.22
2022-09-14T19:40:12.716Z,2.13
2022-09-14T19:45:20.804Z,2.13
2022-09-14T19:50:25.921Z,1.98
2022-09-14T19:55:30.996Z,1.83
2022-09-14T20:00:39.086Z,2.25
2022-09-14T20:05:44.196Z,1.83
2022-09-14T20:10:49.252Z,1.92
2022-09-14T20:15:57.492Z,2.33
2022-09-14T20:21:02.824Z,2.05
2022-09-14T20:26:08.940Z,1.90
2022-09-14T20:31:17.280Z,1.63
2022-09-14T20:36:23.789Z,1.80
2022-09-14T20:41:31.632Z,1.80
2022-09-14T20:46:41.716Z,1.73
2022-09-14T20:51:47.454Z,2.05
2022-09-14T20:56:52.677Z,2.38
2022-09-14T21:02:05.126Z,2.08
2022-09-14T21:07:10.684Z,2.28
2022-09-14T21:12:15.757Z,2.65
2022-09-14T21:17:23.527Z,1.75
2022-09-14T21:22:28.727Z,1.92
2022-09-14T21:27:35.178Z,1.90
2022-09-14T21:32:42.883Z,1.88
2022-09-14T21:37:49.376Z,2.38
2022-09-14T21:42:54.607Z,1.90
2022-09-14T21:48:02.171Z,2.70
2022-09-14T21:53:07.323Z,2.00
2022-09-14T21:58:12.292Z,1.90
2022-09-14T22:03:19.994Z,2.03
2022-09-14T22:08:25.023Z,1.85
2022-09-14T22:13:30.236Z,1.88
2022-09-14T22:18:38.474Z,1.92
2022-09-14T22:23:43.431Z,2.35
2022-09-14T22:28:48.711Z,2.25
2022-09-14T22:33:57.200Z,2.13
2022-09-14T22:39:03.219Z,2.25
2022-09-14T22:44:09.116Z,2.50
2022-09-14T22:49:16.708Z,1.55
2022-09-14T22:54:21.907Z,2.17
2022-09-14T22:59:26.925Z,2.63
2022-09-14T23:04:34.565Z,3.20
2022-09-14T23:09:39.541Z,6.00
2022-09-14T23:14:44.503Z,7.00
2022-09-14T23:19:52.199Z,6.72
2022-09-14T23:24:57.152Z,4.53
2022-09-14T23:30:02.188Z,3.88
2022-09-14T23:35:11.824Z,3.30
2022-09-14T23:40:18.534Z,4.00
2022-09-14T23:50:31.800Z,3.83
2022-09-14T23:55:36.974Z,3.95
